Portada
METAR-TAF:

METAR-TAF

Aeroports :

Fairbanks-Eielson, Alaska, Estats Units d'Amèrica

latitud: 64-39N, longitud: 147-06W, altitud: 167 m

Observació

L'informe es va fer fa 30 minuts, a les 09:56 UTC
Vent calma
Temperatura -24°C
Humitat 76%
Pressió 1004 hPa
Visibilitat: 16.1 km
Cel clar

METAR: PAEI 160956Z AUTO 00000KT 10SM CLR M24/M27 A2964 RMK AO2 SLP057 T12391275 $

Hora: 01:26 (10:26 UTC)

Pronòstic

L'informe es va fer fa 4 hores i 26 minuts, a les 06:00 UTC
Pronòstic vàlid del 16 a les 06 UTC al 17 a les 12 UTC
Vent 3 kt amb direcció variable
Visibilitat 10 km o més
Cel clar

TAF: PAEI 160600Z 1606/1712 VRB03KT 9999 SKC QNH2967INS TXM23/1606Z TNM27/1618Z

Observacions i pronòstics meteorològics de més de 4000 aeroports (METAR i TAF).

Les estacions disponibles són els punts grocs i vermells al mapa.

Posi el ratolí al punt desitjat per veure el nom de l'estació.

Feu clic per veure les observacions i els pronòstics meteorològics.

Per canviar el mapa: feu clic els botons verds amb una creu de color negre per apropar; al botó verd amb un guió per allunyar la imatge; o en les fletxes verdes per a mapes adjacents.


METAR-TAF: